Time;durP1;ratioP1;P1;durP2;ratioP2;P2;SDS_P1;SDS_P2;PMS_P1;PMS_P2;Temp;Humidity;BMP_temperature;BMP_pressure;BME280_temperature;BME280_humidity;BME280_pressure;Samples;Min_cycle;Max_cycle;Signal;HPM_P1;HPM_P2
2022/12/03 00:00:08;;;;;;;;;;;;;;;17.44;58.69;98619.00;2071656;28;20119;-48
2022/12/03 00:01:11;;;;;;;2.90;2.35;;;;;;;17.51;58.54;98611.81;2070293;28;20000;-50
2022/12/03 00:02:12;;;;;;;3.03;2.08;;;;;;;17.56;58.44;98612.06;2068761;28;20095;-49
2022/12/03 00:03:13;;;;;;;;;;;;;;;17.46;58.63;98611.59;2069489;28;20057;-47
2022/12/03 00:04:14;;;;;;;3.58;2.38;;;;;;;17.50;58.57;98610.19;2070742;28;20026;-48
2022/12/03 00:05:16;;;;;;;;;;;;;;;17.41;58.83;98614.88;2071144;28;20128;-49
2022/12/03 00:06:16;;;;;;;2.80;1.95;;;;;;;17.46;58.76;98616.94;2069558;28;20554;-49
2022/12/03 00:07:18;;;;;;;;;;;;;;;17.39;58.94;98606.19;2069635;28;20103;-48
2022/12/03 00:08:19;;;;;;;2.92;1.70;;;;;;;17.43;58.63;98610.13;2069379;28;19925;-50
2022/12/03 00:09:20;;;;;;;;;;;;;;;17.35;58.97;98612.94;2070315;28;20059;-49
2022/12/03 00:10:21;;;;;;;3.13;2.30;;;;;;;17.41;58.88;98619.38;2069811;28;20007;-47
2022/12/03 00:11:22;;;;;;;;;;;;;;;17.35;59.01;98620.16;2069858;28;20757;-45
2022/12/03 00:12:23;;;;;;;3.03;1.90;;;;;;;17.42;58.76;98621.88;2069244;28;20028;-50
2022/12/03 00:13:24;;;;;;;;;;;;;;;17.33;59.12;98616.88;2070255;28;20152;-48
2022/12/03 00:14:25;;;;;;;2.22;1.85;;;;;;;17.38;58.89;98619.78;2069710;28;19975;-50
2022/12/03 00:15:27;;;;;;;;;;;;;;;17.31;58.93;98611.69;2071446;28;20457;-49
2022/12/03 00:16:31;;;;;;;3.70;2.13;;;;;;;17.34;58.90;98615.84;2070117;28;19928;-47
2022/12/03 00:17:33;;;;;;;2.78;1.90;;;;;;;17.38;58.86;98619.78;2069260;28;20077;-47
2022/12/03 00:18:34;;;;;;;2.83;2.20;;;;;;;17.43;58.61;98620.03;2070324;28;20064;-50
2022/12/03 00:19:35;;;;;;;;;;;;;;;17.32;58.88;98615.19;2071292;28;20125;-48
2022/12/03 00:20:37;;;;;;;3.70;2.38;;;;;;;17.35;58.75;98607.59;2070075;28;19925;-47
2022/12/03 00:21:38;;;;;;;2.60;2.28;;;;;;;17.40;58.62;98609.69;2071362;28;20445;-51
2022/12/03 00:22:39;;;;;;;;;;;;;;;17.29;58.76;98612.91;2070104;28;20049;-48
2022/12/03 00:23:40;;;;;;;3.90;2.75;;;;;;;17.34;58.79;98607.81;2069071;28;19929;-45
2022/12/03 00:24:41;;;;;;;;;;;;;;;17.23;59.14;98611.03;2070172;28;20049;-45
2022/12/03 00:25:42;;;;;;;2.83;2.03;;;;;;;17.29;58.96;98612.91;2069473;28;20535;-47
2022/12/03 00:26:44;;;;;;;;;;;;;;;17.22;59.23;98615.56;2070574;28;20069;-45
2022/12/03 00:27:44;;;;;;;3.22;2.33;;;;;;;17.26;59.09;98614.13;2068976;28;19933;-47
2022/12/03 00:28:47;;;;;;;;;;;;;;;17.21;59.21;98616.56;2070828;28;20188;-50
2022/12/03 00:29:47;;;;;;;4.10;1.98;;;;;;;17.26;58.88;98611.44;2068520;28;20023;-49
2022/12/03 00:30:52;;;;;;;;;;;;;;;17.17;59.29;98610.78;2071352;28;20050;-49
2022/12/03 00:31:54;;;;;;;3.95;2.30;;;;;;;17.24;59.13;98608.13;2072330;28;20360;-49
2022/12/03 00:32:56;;;;;;;3.45;2.90;;;;;;;17.28;58.81;98613.94;2070367;28;20053;-48
2022/12/03 00:33:57;;;;;;;3.58;2.20;;;;;;;17.31;58.77;98613.56;2069706;28;20041;-49
2022/12/03 00:34:58;;;;;;;;;;;;;;;17.20;59.09;98613.06;2069186;28;20136;-48
2022/12/03 00:35:59;;;;;;;4.20;2.58;;;;;;;17.25;58.94;98608.97;2068649;28;19925;-47
2022/12/03 00:37:01;;;;;;;2.55;2.10;;;;;;;17.31;58.76;98608.19;2070004;28;20095;-50
2022/12/03 00:38:02;;;;;;;3.30;2.60;;;;;;;17.35;58.57;98604.09;2068638;28;20109;-49
2022/12/03 00:39:04;;;;;;;;;;;;;;;17.28;58.87;98613.94;2069738;28;20053;-51
2022/12/03 00:40:06;;;;;;;3.05;2.17;;;;;;;17.35;58.63;98615.63;2069537;28;19928;-49
2022/12/03 00:41:08;;;;;;;2.30;1.92;;;;;;;17.41;58.39;98611.34;2070951;28;20073;-51
2022/12/03 00:42:09;;;;;;;2.75;1.88;;;;;;;17.46;58.36;98610.75;2070990;28;20060;-48
2022/12/03 00:43:10;;;;;;;;;;;;;;;17.37;58.53;98610.09;2070340;28;20049;-50
2022/12/03 00:44:11;;;;;;;2.70;2.35;;;;;;;17.41;58.54;98608.66;2068936;28;19921;-46
2022/12/03 00:45:13;;;;;;;4.00;1.95;;;;;;;17.46;58.41;98608.06;2070356;28;20635;-49
2022/12/03 00:46:13;;;;;;;2.47;2.20;;;;;;;17.49;58.35;98610.34;2070803;28;20088;-48
2022/12/03 00:47:16;;;;;;;;;;;;;;;17.40;58.51;98607.00;2070653;28;20103;-50
2022/12/03 00:48:17;;;;;;;3.03;2.05;;;;;;;17.45;58.31;98601.06;2067855;28;19933;-48
2022/12/03 00:49:18;;;;;;;;;;;;;;;17.37;58.62;98602.88;2070724;28;20046;-46
2022/12/03 00:50:19;;;;;;;3.08;2.80;;;;;;;17.43;58.41;98609.28;2071708;28;19922;-51
2022/12/03 00:51:21;;;;;;;;;;;;;;;17.36;58.59;98608.44;2070237;28;22248;-47
2022/12/03 00:52:21;;;;;;;3.03;2.25;;;;;;;17.41;58.47;98605.97;2067875;28;20154;-48
2022/12/03 00:53:23;;;;;;;;;;;;;;;17.35;58.55;98601.41;2070930;28;21136;-49
2022/12/03 00:54:24;;;;;;;3.67;2.55;;;;;;;17.39;58.53;98603.50;2071138;28;19920;-48
2022/12/03 00:55:25;;;;;;;;;;;;;;;17.35;58.62;98601.41;2072323;28;24059;-48
2022/12/03 00:56:26;;;;;;;2.70;2.47;;;;;;;17.40;58.43;98609.69;2071725;28;19974;-46
2022/12/03 00:57:27;;;;;;;;;;;;;;;17.34;58.80;98605.13;2069975;28;20673;-50
2022/12/03 00:58:28;;;;;;;3.03;2.35;;;;;;;17.38;58.68;98604.53;2069173;28;19933;-50
2022/12/03 00:59:30;;;;;;;3.35;2.30;;;;;;;17.45;58.38;98611.78;2069688;28;20052;-48
2022/12/03 01:00:31;;;;;;;2.65;2.03;;;;;;;17.50;58.40;98612.03;2068212;28;20060;-52
2022/12/03 01:01:32;;;;;;;;;;;;;;;17.39;58.50;98605.38;2071979;28;20041;-46
2022/12/03 01:02:35;;;;;;;2.85;2.03;;;;;;;17.43;58.39;98604.75;2067516;28;19921;-49
2022/12/03 01:03:36;;;;;;;3.05;2.10;;;;;;;17.47;58.31;98602.53;2069741;28;20797;-46
2022/12/03 01:04:37;;;;;;;2.83;1.90;;;;;;;17.49;58.26;98596.94;2070600;28;20053;-45
2022/12/03 01:05:39;;;;;;;;;;;;;;;17.41;58.46;98597.94;2070816;28;20183;-49
2022/12/03 01:06:40;;;;;;;4.75;2.80;;;;;;;17.43;58.30;98604.75;2069298;28;19921;-48
2022/12/03 01:07:42;;;;;;;5.25;2.00;;;;;;;17.47;58.11;98597.16;2067947;28;20188;-45
2022/12/03 01:08:42;;;;;;;2.35;2.15;;;;;;;17.50;58.26;98606.69;2069193;28;20046;-49
2022/12/03 01:09:44;;;;;;;;;;;;;;;17.41;58.28;98600.63;2072134;28;20060;-45
2022/12/03 01:10:44;;;;;;;3.55;1.90;;;;;;;17.42;58.43;98604.97;2070637;28;19929;-50
2022/12/03 01:11:46;;;;;;;;;;;;;;;17.34;58.52;98607.81;2071482;28;21614;-49
2022/12/03 01:12:47;;;;;;;3.85;1.90;;;;;;;17.39;58.61;98598.16;2070815;28;20321;-46
2022/12/03 01:13:48;;;;;;;;;;;;;;;17.35;58.66;98601.41;2074903;28;20060;-48
2022/12/03 01:14:49;;;;;;;2.85;2.30;;;;;;;17.37;58.59;98602.03;2071518;28;19921;-49
2022/12/03 01:15:50;;;;;;;;;;;;;;;17.32;58.60;98596.44;2072363;28;20057;-47
2022/12/03 01:16:51;;;;;;;2.20;2.00;;;;;;;17.37;58.58;98604.72;2068684;28;21559;-49
2022/12/03 01:17:54;;;;;;;;;;;;;;;17.31;58.80;98600.16;2069924;28;20089;-45
2022/12/03 01:18:55;;;;;;;3.55;2.13;;;;;;;17.37;58.46;98594.81;2067926;28;20051;-48
2022/12/03 01:19:57;;;;;;;;;;;;;;;17.31;58.69;98597.47;2069732;28;20060;-51
2022/12/03 01:20:58;;;;;;;2.20;2.00;;;;;;;17.37;58.60;98594.00;2070270;28;19921;-46
2022/12/03 01:22:00;;;;;;;;;;;;;;;17.31;58.65;98597.47;2069718;28;20714;-45
2022/12/03 01:23:00;;;;;;;3.88;2.20;;;;;;;17.36;58.60;98597.72;2072243;28;19924;-49
2022/12/03 01:24:02;;;;;;;;;;;;;;;17.29;58.80;98596.81;2070470;28;20114;-45
2022/12/03 01:25:03;;;;;;;2.97;2.50;;;;;;;17.35;58.50;98593.34;2069203;28;19925;-48
2022/12/03 01:26:05;;;;;;;2.60;2.30;;;;;;;17.38;58.46;98593.81;2071590;28;20473;-49
2022/12/03 01:27:06;;;;;;;2.38;2.08;;;;;;;17.41;58.34;98592.56;2068421;28;20066;-47
2022/12/03 01:28:07;;;;;;;;;;;;;;;17.30;58.68;98590.44;2068127;28;20058;-46
2022/12/03 01:29:08;;;;;;;3.65;1.70;;;;;;;17.34;58.54;98594.41;2070841;28;19927;-47
2022/12/03 01:30:11;;;;;;;;;;;;;;;17.28;58.61;98592.50;2073749;28;20042;-49
2022/12/03 01:32:27;;;;;;;4.57;1.80;;;;;;;17.34;58.58;98591.72;2048310;28;20054;-49
2022/12/03 01:33:29;;;;;;;;;;;;;;;17.25;58.77;98591.03;2063734;28;20123;-48
2022/12/03 01:34:31;;;;;;;;;;;;;;;17.16;58.98;98585.00;2070205;28;20009;-47
2022/12/03 01:35:31;;;;;;;;;;;;;;;17.13;59.12;98582.72;2069386;28;19955;-49
2022/12/03 01:36:34;;;;;;;3.00;2.43;;;;;;;17.21;59.20;98581.72;2070041;28;19929;-46
2022/12/03 01:37:34;;;;;;;2.72;2.00;;;;;;;17.28;58.62;98584.47;2070672;28;20049;-51
2022/12/03 01:38:36;;;;;;;;;;;;;;;17.22;58.86;98582.53;2071251;28;20828;-47
2022/12/03 01:39:37;;;;;;;3.85;2.65;;;;;;;17.26;58.63;98581.97;2071714;28;19940;-49
2022/12/03 01:40:38;;;;;;;;;;;;;;;17.21;58.77;98579.03;2071927;28;20053;-47
2022/12/03 01:41:39;;;;;;;2.70;1.83;;;;;;;17.24;58.69;98575.97;2069284;28;20544;-48
2022/12/03 01:42:42;;;;;;;2.70;2.40;;;;;;;17.30;58.64;98582.41;2067995;28;20045;-47
2022/12/03 01:43:43;;;;;;;3.13;2.63;;;;;;;17.32;58.57;98572.31;2071273;28;20061;-48
2022/12/03 01:44:46;;;;;;;4.18;2.13;;;;;;;17.34;58.38;98578.31;2070365;28;20128;-47
2022/12/03 01:45:47;;;;;;;3.53;2.08;;;;;;;17.33;58.30;98579.34;2071059;28;20041;-47
2022/12/03 01:46:49;;;;;;;;;;;;;;;17.20;58.59;98574.72;2070052;28;20441;-46
2022/12/03 01:47:50;;;;;;;2.20;1.90;;;;;;;17.23;58.74;98574.31;2071057;28;20090;-47
2022/12/03 01:48:53;;;;;;;;;;;;;;;17.15;58.73;98577.16;2072266;28;20485;-48
2022/12/03 01:49:59;;;;;;;2.90;1.67;;;;;;;17.17;58.85;98570.56;2070283;28;19925;-47
2022/12/03 01:51:00;;;;;;;2.83;2.28;;;;;;;17.22;58.74;98577.19;2071690;28;20053;-51
2022/12/03 01:52:01;;;;;;;3.00;2.00;;;;;;;17.26;58.70;98573.09;2071823;28;20054;-50
2022/12/03 01:53:03;;;;;;;;;;;;;;;17.14;58.92;98573.66;2071874;28;20464;-47
2022/12/03 01:54:04;;;;;;;3.50;1.90;;;;;;;17.18;58.73;98574.06;2070605;28;19975;-46
2022/12/03 01:55:07;;;;;;;;;;;;;;;17.09;58.85;98573.41;2069965;28;20049;-47
2022/12/03 01:56:11;;;;;;;4.05;2.42;;;;;;;17.16;58.84;98574.28;2071704;28;20462;-49
2022/12/03 01:57:21;;;;;;;2.35;1.75;;;;;;;17.17;58.76;98567.06;2070525;28;20445;-45
2022/12/03 01:58:26;;;;;;;4.50;2.53;;;;;;;17.19;58.69;98571.22;2071123;28;20053;-47
2022/12/03 01:59:33;;;;;;;3.42;2.30;;;;;;;17.19;58.62;98568.53;2070574;28;20045;-47
2022/12/03 02:00:34;;;;;;;2.80;1.70;;;;;;;17.22;58.68;98566.47;2070787;28;20136;-45
2022/12/03 02:01:35;;;;;;;;;;;;;;;17.10;58.89;98564.31;2074022;28;20676;-46
2022/12/03 02:02:36;;;;;;;3.15;2.50;;;;;;;17.12;58.85;98562.28;2069940;28;19925;-49
2022/12/03 02:03:37;;;;;;;;;;;;;;;17.04;59.03;98561.59;2071855;28;20100;-48
2022/12/03 02:04:39;;;;;;;2.38;2.17;;;;;;;17.07;58.96;98556.69;2073248;28;19936;-45
2022/12/03 02:05:41;;;;;;;2.13;1.92;;;;;;;17.12;58.96;98554.25;2072382;28;20775;-50
2022/12/03 02:06:43;;;;;;;1.95;1.85;;;;;;;17.17;58.73;98557.16;2073563;28;20053;-48
2022/12/03 02:07:45;;;;;;;2.50;2.20;;;;;;;17.18;58.66;98558.00;2069208;28;20669;-45
2022/12/03 02:08:47;;;;;;;3.38;2.38;;;;;;;17.24;58.62;98561.75;2070690;28;20057;-48
2022/12/03 02:09:49;;;;;;;3.60;2.00;;;;;;;17.27;58.45;98556.81;2073823;28;20057;-51
2022/12/03 02:10:50;;;;;;;2.85;2.20;;;;;;;17.29;58.42;98557.44;2070938;28;20057;-47
2022/12/03 02:11:52;;;;;;;;;;;;;;;17.20;58.68;98553.28;2070338;28;20528;-48
2022/12/03 02:12:56;;;;;;;2.92;1.95;;;;;;;17.27;58.57;98554.13;2070231;28;19940;-47
2022/12/03 02:14:02;;;;;;;3.92;1.92;;;;;;;17.32;58.36;98549.00;2071124;28;20046;-46
2022/12/03 02:15:04;;;;;;;2.95;1.63;;;;;;;17.36;58.27;98546.78;2070954;28;20145;-49
2022/12/03 02:16:07;;;;;;;2.92;1.80;;;;;;;17.38;58.10;98547.38;2070395;28;20061;-48
2022/12/03 02:17:08;;;;;;;2.60;1.77;;;;;;;17.39;58.17;98546.38;2070827;28;20571;-48
2022/12/03 02:18:10;;;;;;;;;;;;;;;17.30;58.35;98547.53;2072081;28;20107;-48
2022/12/03 02:19:19;;;;;;;4.15;2.28;;;;;;;17.35;58.22;98545.09;2069751;28;19932;-45
2022/12/03 02:20:23;;;;;;;2.75;2.03;;;;;;;17.38;58.24;98550.06;2073218;28;20115;-46
2022/12/03 02:21:31;;;;;;;2.28;1.88;;;;;;;17.41;58.16;98552.34;2069886;28;20771;-49
2022/12/03 02:22:40;;;;;;;2.45;2.10;;;;;;;17.41;58.13;98542.47;2070210;28;20524;-47
2022/12/03 02:23:53;;;;;;;2.20;1.92;;;;;;;17.43;58.11;98544.94;2071195;28;20473;-45
2022/12/03 02:25:05;;;;;;;1.90;1.70;;;;;;;17.40;58.02;98543.47;2071090;28;20049;-48
2022/12/03 02:26:06;;;;;;;3.33;1.90;;;;;;;17.42;58.10;98548.66;2071604;28;20413;-48
2022/12/03 02:27:08;;;;;;;;;;;;;;;17.34;58.28;98544.28;2070398;28;20135;-45
2022/12/03 02:28:09;;;;;;;2.80;1.92;;;;;;;17.37;58.35;98538.53;2070087;28;20011;-48
2022/12/03 02:29:11;;;;;;;2.92;1.85;;;;;;;17.37;58.25;98538.53;2069470;28;20115;-47
2022/12/03 02:30:14;;;;;;;2.38;2.17;;;;;;;17.45;58.11;98544.75;2070910;28;20049;-48
2022/12/03 02:31:16;;;;;;;2.38;1.80;;;;;;;17.43;58.10;98543.09;2071142;28;20077;-48
2022/12/03 02:32:18;;;;;;;3.00;2.00;;;;;;;17.46;58.14;98539.19;2072202;28;20460;-49
2022/12/03 02:33:19;;;;;;;2.22;2.03;;;;;;;17.45;58.17;98545.59;2071415;28;20057;-49
2022/12/03 02:34:35;;;;;;;2.20;2.00;;;;;;;17.43;58.05;98543.09;2072368;28;20053;-47
2022/12/03 02:35:38;;;;;;;2.15;1.95;;;;;;;17.44;58.00;98543.94;2072561;28;20060;-46
2022/12/03 02:36:39;;;;;;;3.22;2.10;;;;;;;17.46;58.20;98541.03;2068754;28;20056;-48
2022/12/03 02:37:41;;;;;;;;;;;;;;;17.36;58.26;98541.41;2070673;28;20088;-46
2022/12/03 02:38:43;;;;;;;2.20;2.00;;;;;;;17.38;58.26;98539.34;2069893;28;19921;-51
2022/12/03 02:39:49;;;;;;;2.80;2.00;;;;;;;17.42;58.17;98543.31;2071484;28;20573;-48
2022/12/03 02:40:54;;;;;;;2.60;1.80;;;;;;;17.44;58.10;98543.94;2069774;28;20490;-48
2022/12/03 02:43:18;;;;;;;3.22;2.20;;;;;;;17.44;58.03;98543.94;2071022;28;20042;-45
2022/12/03 02:44:18;;;;;;;1.73;1.63;;;;;;;17.44;58.12;98538.56;2070939;28;20056;-45
2022/12/03 02:45:20;;;;;;;;;;;;;;;17.33;58.46;98539.97;2073211;28;20056;-45
2022/12/03 02:46:22;;;;;;;3.97;2.17;;;;;;;17.37;58.24;98537.69;2073847;28;21090;-47
2022/12/03 02:47:22;;;;;;;3.38;1.63;;;;;;;17.41;58.20;98533.59;2070146;28;20108;-47
2022/12/03 02:48:26;;;;;;;;;;;;;;;17.33;58.25;98536.47;2069476;28;20058;-48
2022/12/03 02:49:27;;;;;;;2.33;1.67;;;;;;;17.34;58.37;98524.69;2069465;28;19925;-45
2022/12/03 02:50:29;;;;;;;;;;;;;;;17.27;58.49;98538.03;2073793;28;20588;-46
2022/12/03 02:51:31;;;;;;;2.72;2.10;;;;;;;17.33;58.54;98531.91;2070530;28;19967;-47
2022/12/03 02:52:33;;;;;;;2.38;1.98;;;;;;;17.37;58.53;98529.66;2069007;28;20060;-49
2022/12/03 02:53:41;;;;;;;2.20;2.00;;;;;;;17.39;58.32;98525.75;2070221;28;20274;-45
2022/12/03 02:54:43;;;;;;;3.22;2.50;;;;;;;17.40;58.22;98523.91;2069483;28;20072;-48
2022/12/03 02:55:44;;;;;;;2.75;1.95;;;;;;;17.41;58.16;98518.34;2069884;28;20049;-49
2022/12/03 02:56:47;;;;;;;2.05;1.65;;;;;;;17.42;58.08;98516.50;2070997;28;20489;-50
2022/12/03 02:57:49;;;;;;;2.08;1.90;;;;;;;17.42;57.92;98520.00;2070108;28;20061;-48
2022/12/03 02:58:54;;;;;;;2.55;1.98;;;;;;;17.43;58.18;98516.28;2070511;28;20084;-47
2022/12/03 02:59:55;;;;;;;3.00;2.13;;;;;;;17.42;57.97;98513.81;2070238;28;20498;-47
2022/12/03 03:00:58;;;;;;;;;;;;;;;17.32;58.41;98524.06;2069608;28;20052;-51
2022/12/03 03:02:00;;;;;;;2.45;2.13;;;;;;;17.34;58.22;98514.78;2071687;28;19999;-46
2022/12/03 03:03:04;;;;;;;1.83;1.63;;;;;;;17.37;58.15;98510.88;2069158;28;20073;-50
2022/12/03 03:04:05;;;;;;;3.75;1.63;;;;;;;17.39;58.18;98506.16;2070360;28;21142;-49
2022/12/03 03:05:10;;;;;;;2.17;1.90;;;;;;;17.39;58.41;98512.34;2069186;28;20085;-46
2022/12/03 03:06:12;;;;;;;3.00;2.25;;;;;;;17.39;58.04;98503.47;2072656;28;20049;-49
2022/12/03 03:07:14;;;;;;;1.98;1.88;;;;;;;17.41;58.04;98506.78;2068301;28;20045;-49
2022/12/03 03:08:16;;;;;;;2.60;1.80;;;;;;;17.40;58.17;98507.81;2070167;28;20056;-47
2022/12/03 03:09:19;;;;;;;3.75;1.95;;;;;;;17.40;58.16;98510.50;2069683;28;20050;-48
2022/12/03 03:10:22;;;;;;;2.22;1.95;;;;;;;17.40;58.26;98503.28;2070924;28;20053;-47
2022/12/03 03:11:25;;;;;;;1.95;1.80;;;;;;;17.41;58.10;98504.09;2071125;28;20045;-46
2022/12/03 03:12:27;;;;;;;2.25;2.00;;;;;;;17.39;58.15;98498.13;2070807;28;20077;-46
2022/12/03 03:13:30;;;;;;;2.22;2.03;;;;;;;17.37;58.08;98495.63;2072794;28;20052;-48
2022/12/03 03:14:32;;;;;;;2.03;1.58;;;;;;;17.38;58.01;98499.97;2072418;28;20046;-49
2022/12/03 03:15:36;;;;;;;2.30;1.92;;;;;;;17.39;58.11;98495.44;2072218;28;20069;-46
2022/12/03 03:16:37;;;;;;;2.85;1.77;;;;;;;17.38;58.15;98501.81;2068528;28;20050;-48
2022/12/03 03:17:38;;;;;;;;;;;;;;;17.27;58.25;98497.84;2069234;28;20681;-47
2022/12/03 03:18:40;;;;;;;3.05;2.20;;;;;;;17.29;58.35;98498.47;2069684;28;19929;-46
2022/12/03 03:19:42;;;;;;;3.13;2.13;;;;;;;17.30;58.29;98499.28;2070843;28;21064;-48
2022/12/03 03:20:43;;;;;;;2.53;2.00;;;;;;;17.32;58.07;98498.06;2069267;28;20046;-45
2022/12/03 03:21:45;;;;;;;1.75;1.65;;;;;;;17.32;58.14;98502.63;2070524;28;20092;-48
2022/12/03 03:22:45;;;;;;;1.92;1.83;;;;;;;17.32;58.17;98494.56;2070060;28;20065;-48
2022/12/03 03:23:47;;;;;;;;;;;;;;;17.19;58.38;98496.16;2070303;28;20041;-49
2022/12/03 03:24:48;;;;;;;3.22;2.05;;;;;;;17.23;58.46;98491.22;2071578;28;19925;-47
2022/12/03 03:25:51;;;;;;;;;;;;;;;17.16;58.72;98504.59;2070659;28;20482;-47
2022/12/03 03:26:52;;;;;;;2.28;1.88;;;;;;;17.18;58.58;98491.81;2068638;28;19929;-48
2022/12/03 03:27:55;;;;;;;;;;;;;;;17.12;58.80;98492.59;2069228;28;20053;-49
2022/12/03 03:28:58;;;;;;;2.45;1.83;;;;;;;17.18;58.44;98491.81;2068918;28;19937;-49
2022/12/03 03:30:00;;;;;;;1.65;1.55;;;;;;;17.22;58.47;98491.41;2071188;28;20123;-47
2022/12/03 03:31:03;;;;;;;2.17;1.90;;;;;;;17.25;58.56;98493.72;2067540;28;20607;-48
2022/12/03 03:32:05;;;;;;;3.40;1.85;;;;;;;17.25;58.20;98489.19;2068773;28;20077;-48
2022/12/03 03:33:06;;;;;;;1.90;1.75;;;;;;;17.26;58.26;98492.69;2070792;28;20049;-50
2022/12/03 03:34:08;;;;;;;;;;;;;;;17.13;58.42;98488.91;2071795;28;20057;-46
2022/12/03 03:35:09;;;;;;;3.25;2.42;;;;;;;17.14;58.43;98490.56;2070726;28;20385;-48
2022/12/03 03:36:14;;;;;;;2.60;2.05;;;;;;;17.18;58.46;98491.00;2070999;28;20049;-47
2022/12/03 03:37:14;;;;;;;1.65;1.50;;;;;;;17.19;58.44;98488.13;2067668;28;20486;-49
2022/12/03 03:38:18;;;;;;;;;;;;;;;17.08;58.74;98490.53;2070794;28;20053;-45
2022/12/03 03:39:19;;;;;;;2.35;1.75;;;;;;;17.09;58.64;98484.97;2070327;28;19921;-45
2022/12/03 03:40:20;;;;;;;;;;;;;;;17.02;58.91;98486.78;2068955;28;20133;-46
2022/12/03 03:41:22;;;;;;;1.55;1.45;;;;;;;17.07;58.79;98486.19;2069610;28;19936;-49
2022/12/03 03:42:23;;;;;;;;;;;;;;;17.00;58.90;98488.84;2069902;28;20058;-48
2022/12/03 03:43:26;;;;;;;2.00;1.80;;;;;;;17.04;58.94;98483.91;2071088;28;19924;-48
2022/12/03 03:44:28;;;;;;;3.15;1.92;;;;;;;17.08;58.80;98480.66;2069688;28;20063;-46
2022/12/03 03:45:29;;;;;;;3.10;1.73;;;;;;;17.11;58.51;98482.94;2068787;28;20059;-47
2022/12/03 03:46:32;;;;;;;;;;;;;;;17.02;58.74;98488.63;2070095;28;20045;-48
2022/12/03 03:47:33;;;;;;;2.20;1.88;;;;;;;17.06;58.76;98490.72;2066275;28;19979;-46
2022/12/03 03:48:34;;;;;;;;;;;;;;;16.99;59.06;98489.84;2063762;28;20057;-46
2022/12/03 03:49:35;;;;;;;2.20;1.73;;;;;;;17.03;58.91;98484.94;2067296;28;19933;-47
2022/12/03 03:50:37;;;;;;;;;;;;;;;16.94;58.92;98486.94;2068421;28;20049;-49
2022/12/03 03:51:38;;;;;;;3.30;2.38;;;;;;;16.98;58.94;98488.19;2068129;28;19991;-48
2022/12/03 03:52:41;;;;;;;2.78;1.83;;;;;;;17.02;58.75;98481.44;2068335;28;24680;-46
2022/12/03 03:53:46;;;;;;;2.75;1.88;;;;;;;17.07;58.82;98488.88;2071088;28;20041;-45
2022/12/03 03:54:48;;;;;;;2.35;1.70;;;;;;;17.08;58.67;98485.19;2067220;28;20065;-45
2022/12/03 03:55:50;;;;;;;3.22;1.88;;;;;;;17.07;58.58;98480.81;2069538;28;20050;-45
2022/12/03 03:56:52;;;;;;;1.60;1.50;;;;;;;17.10;58.42;98486.59;2068722;28;20058;-48
2022/12/03 03:57:53;;;;;;;1.67;1.58;;;;;;;17.09;58.60;98484.97;2070068;28;20058;-45
2022/12/03 03:58:56;;;;;;;;;;;;;;;17.04;58.82;98487.41;2069528;28;20560;-46
2022/12/03 03:59:58;;;;;;;2.22;1.80;;;;;;;17.10;58.59;98478.56;2070478;28;20004;-45
2022/12/03 04:01:01;;;;;;;1.90;1.60;;;;;;;17.20;58.41;98488.94;2067894;28;20081;-50
2022/12/03 04:02:02;;;;;;;2.17;1.85;;;;;;;17.24;58.21;98481.31;2070169;28;20052;-48
2022/12/03 04:03:03;;;;;;;;;;;;;;;17.16;58.59;98487.66;2070198;28;20053;-47
2022/12/03 04:04:08;;;;;;;1.60;1.50;;;;;;;17.19;58.47;98482.75;2069996;28;19979;-47
2022/12/03 04:05:16;;;;;;;1.70;1.60;;;;;;;17.26;58.25;98476.59;2069531;28;20057;-48
2022/12/03 04:06:16;;;;;;;3.20;1.80;;;;;;;17.28;58.26;98479.91;2071329;28;20077;-47
2022/12/03 04:07:18;;;;;;;;;;;;;;;17.19;58.48;98482.75;2068616;28;20045;-49
2022/12/03 04:08:19;;;;;;;1.98;1.67;;;;;;;17.21;58.40;98471.81;2070818;28;19925;-46
2022/12/03 04:09:20;;;;;;;;;;;;;;;17.16;58.64;98477.81;2070044;28;20557;-49
2022/12/03 04:13:00;;;;;;;2.25;1.80;;;;;;;17.27;58.57;98479.06;2070288;28;20172;-48
2022/12/03 04:14:03;;;;;;;3.85;2.60;;;;;;;17.33;58.23;98482.84;2069737;28;20168;-48
2022/12/03 04:15:05;;;;;;;2.45;1.90;;;;;;;17.37;58.08;98484.09;2069983;28;20056;-46
2022/12/03 04:16:08;;;;;;;2.42;1.73;;;;;;;17.36;58.12;98482.44;2069962;28;20049;-47
2022/12/03 04:17:08;;;;;;;2.15;1.67;;;;;;;17.39;58.08;98487.41;2069388;28;20053;-47
2022/12/03 04:19:29;;;;;;;2.10;1.75;;;;;;;17.30;58.42;98488.56;2069346;28;19925;-50
2022/12/03 04:20:30;;;;;;;2.10;1.65;;;;;;;17.32;58.30;98481.16;2068538;28;20672;-48
2022/12/03 04:22:49;;;;;;;3.05;1.80;;;;;;;17.32;58.40;98486.53;2070153;28;20527;-47
2022/12/03 04:23:51;;;;;;;;;;;;;;;17.25;58.47;98483.81;2069624;28;20049;-50
2022/12/03 04:28:47;;;;;;;2.55;1.80;;;;;;;17.33;58.33;98488.19;2068984;28;19921;-45
2022/12/03 04:28:52;;;;;;;2.25;2.05;;;;;;;17.38;58.23;98491.09;2069496;28;20053;-48
2022/12/03 04:29:54;;;;;;;1.48;1.25;;;;;;;17.43;57.95;98485.97;2068887;28;20152;-47
2022/12/03 04:30:56;;;;;;;2.72;2.38;;;;;;;17.45;57.90;98488.47;2069418;28;20053;-47
2022/12/03 04:35:56;;;;;;;2.10;1.83;;;;;;;17.43;58.04;98488.63;2069152;28;20095;-49
2022/12/03 04:36:56;;;;;;;1.35;1.25;;;;;;;17.42;58.17;98489.69;2069125;28;20635;-46
2022/12/03 04:38:00;;;;;;;;;;;;;;;17.34;58.24;98487.16;2069740;28;20050;-48
2022/12/03 04:39:01;;;;;;;2.20;1.80;;;;;;;17.39;58.12;98487.41;2069189;28;19935;-48
2022/12/03 04:40:59;;;;;;;;;;;;;;;17.28;58.46;98483.44;2070471;28;20071;-46
2022/12/03 04:41:23;;;;;;;1.73;1.60;;;;;;;17.31;58.33;98477.66;2069071;28;20479;-47
2022/12/03 04:42:24;;;;;;;;;;;;;;;17.26;58.50;98481.97;2071973;28;20053;-47
2022/12/03 04:43:25;;;;;;;2.45;1.55;;;;;;;17.30;58.49;98481.38;2070516;28;20677;-47
2022/12/03 04:44:32;;;;;;;;;;;;;;;17.25;58.48;98474.97;2072676;28;20053;-49
2022/12/03 04:45:35;;;;;;;2.33;1.45;;;;;;;17.30;58.42;98472.50;2068542;28;19930;-47
2022/12/03 04:46:36;;;;;;;1.70;1.20;;;;;;;17.35;58.31;98475.41;2071233;28;20049;-46
2022/12/03 04:47:37;;;;;;;;;;;;;;;17.28;58.44;98480.75;2070420;28;20054;-48
2022/12/03 04:48:38;;;;;;;1.90;1.60;;;;;;;17.30;58.30;98476.03;2071164;28;19936;-47
2022/12/03 04:49:40;;;;;;;;;;;;;;;17.23;58.84;98468.97;2071455;28;20809;-48
2022/12/03 04:50:41;;;;;;;1.58;1.48;;;;;;;17.30;58.31;98472.50;2071283;28;19967;-47
2022/12/03 04:51:42;;;;;;;;;;;;;;;17.23;58.66;98466.28;2072590;28;20091;-47
2022/12/03 04:52:44;;;;;;;2.00;1.80;;;;;;;17.27;58.53;98467.53;2070581;28;19925;-46
2022/12/03 04:53:45;;;;;;;2.38;1.90;;;;;;;17.29;58.46;98460.13;2071825;28;20060;-48
2022/12/03 04:54:46;;;;;;;;;;;;;;;17.25;58.40;98464.25;2071334;28;20045;-45
2022/12/03 04:55:47;;;;;;;1.85;1.75;;;;;;;17.31;58.33;98461.56;2070950;28;21151;-45
2022/12/03 04:56:48;;;;;;;;;;;;;;;17.23;58.52;98460.94;2069915;28;20093;-46
2022/12/03 04:57:50;;;;;;;2.33;1.83;;;;;;;17.28;58.65;98450.44;2066561;28;19921;-46
2022/12/03 04:58:51;;;;;;;3.13;2.05;;;;;;;17.35;58.54;98459.31;2071021;28;20056;-48
2022/12/03 04:59:52;;;;;;;;;;;;;;;17.32;58.56;98449.81;2071789;28;20424;-44
2022/12/03 05:00:55;;;;;;;1.50;1.40;;;;;;;17.41;58.59;98461.19;2069303;28;19978;-47
2022/12/03 05:01:56;;;;;;;3.58;1.90;;;;;;;17.45;58.32;98459.78;2071290;28;20080;-48
2022/12/03 05:02:58;;;;;;;3.08;1.83;;;;;;;17.51;58.41;98458.16;2070606;28;21016;-45
2022/12/03 05:03:59;;;;;;;1.98;1.77;;;;;;;17.55;58.35;98464.75;2067441;28;20053;-45
2022/12/03 05:05:00;;;;;;;;;;;;;;;17.48;58.48;98461.25;2068206;28;20048;-47
2022/12/03 05:06:01;;;;;;;3.13;2.20;;;;;;;17.51;58.53;98458.97;2072050;28;20008;-47
2022/12/03 05:07:03;;;;;;;;;;;;;;;17.46;58.66;98461.44;2066759;28;20429;-47
2022/12/03 05:08:04;;;;;;;2.58;1.73;;;;;;;17.55;58.67;98454.88;2068011;28;19973;-46
2022/12/03 05:09:06;;;;;;;2.40;1.42;;;;;;;17.63;58.48;98457.38;2068297;28;20057;-48
2022/12/03 05:10:08;;;;;;;3.42;2.10;;;;;;;17.68;58.29;98448.72;2068056;28;20135;-47
2022/12/03 05:11:10;;;;;;;1.88;1.70;;;;;;;17.70;58.27;98446.66;2068711;28;23956;-46
2022/12/03 05:12:11;;;;;;;2.25;1.65;;;;;;;17.74;58.38;98449.75;2070981;28;20049;-47
2022/12/03 05:13:12;;;;;;;2.78;2.00;;;;;;;17.78;58.34;98440.31;2067821;28;20050;-48
2022/12/03 05:14:14;;;;;;;;;;;;;;;17.69;58.39;98434.28;2070707;28;20651;-48
2022/12/03 05:15:14;;;;;;;2.15;1.58;;;;;;;17.76;58.39;98434.31;2066648;28;19921;-46